sensor_id;sensor_type;location;lat;lon;timestamp;pressure;altitude;pressure_sealevel;temperature;humidity
22047;BME280;11187;49.412;20.956;2023-09-30T00:01:28;95625.91;;;10.93;100.00
22047;BME280;11187;49.412;20.956;2023-09-30T00:04:05;95633.59;;;10.93;100.00
22047;BME280;11187;49.412;20.956;2023-09-30T00:06:58;95636.19;;;10.87;100.00
22047;BME280;11187;49.412;20.956;2023-09-30T00:09:52;95631.97;;;10.86;100.00
22047;BME280;11187;49.412;20.956;2023-09-30T00:12:26;95631.97;;;10.86;100.00
22047;BME280;11187;49.412;20.956;2023-09-30T00:15:13;95634.63;;;10.77;100.00
22047;BME280;11187;49.412;20.956;2023-09-30T00:17:47;95635.56;;;10.70;100.00
22047;BME280;11187;49.412;20.956;2023-09-30T00:20:33;95633.91;;;10.62;100.00
22047;BME280;11187;49.412;20.956;2023-09-30T00:23:07;95625.44;;;10.56;100.00
22047;BME280;11187;49.412;20.956;2023-09-30T00:25:53;95629.75;;;10.54;100.00
22047;BME280;11187;49.412;20.956;2023-09-30T00:28:27;95627.19;;;10.54;100.00
22047;BME280;11187;49.412;20.956;2023-09-30T00:31:13;95627.25;;;10.48;100.00
22047;BME280;11187;49.412;20.956;2023-09-30T00:33:47;95628.06;;;10.48;100.00
22047;BME280;11187;49.412;20.956;2023-09-30T00:36:34;95634.13;;;10.39;100.00
22047;BME280;11187;49.412;20.956;2023-09-30T00:39:08;95629.03;;;10.38;100.00
22047;BME280;11187;49.412;20.956;2023-09-30T00:41:54;95623.09;;;10.36;100.00
22047;BME280;11187;49.412;20.956;2023-09-30T00:44:34;95620.56;;;10.31;100.00
22047;BME280;11187;49.412;20.956;2023-09-30T00:47:22;95619.69;;;10.34;100.00
22047;BME280;11187;49.412;20.956;2023-09-30T00:50:04;95611.13;;;10.36;100.00
22047;BME280;11187;49.412;20.956;2023-09-30T00:52:47;95611.13;;;10.38;100.00
22047;BME280;11187;49.412;20.956;2023-09-30T00:55:28;95613.69;;;10.36;100.00
22047;BME280;11187;49.412;20.956;2023-09-30T00:58:07;95608.63;;;10.33;100.00
22047;BME280;11187;49.412;20.956;2023-09-30T01:00:49;95612.03;;;10.31;100.00
22047;BME280;11187;49.412;20.956;2023-09-30T01:03:28;95611.19;;;10.25;100.00
22047;BME280;11187;49.412;20.956;2023-09-30T01:06:08;95603.53;;;10.24;100.00
22047;BME280;11187;49.412;20.956;2023-09-30T01:08:49;95602.69;;;10.23;100.00
22047;BME280;11187;49.412;20.956;2023-09-30T01:11:29;95595.88;;;10.19;100.00
22047;BME280;11187;49.412;20.956;2023-09-30T01:14:32;95592.50;;;10.19;100.00
22047;BME280;11187;49.412;20.956;2023-09-30T01:17:14;95596.72;;;10.21;100.00
22047;BME280;11187;49.412;20.956;2023-09-30T01:19:55;95592.44;;;10.23;100.00
22047;BME280;11187;49.412;20.956;2023-09-30T01:22:37;95594.19;;;10.20;100.00
22047;BME280;11187;49.412;20.956;2023-09-30T01:25:24;95596.81;;;10.14;100.00
22047;BME280;11187;49.412;20.956;2023-09-30T01:27:58;95599.41;;;10.09;100.00
22047;BME280;11187;49.412;20.956;2023-09-30T01:30:45;95595.09;;;10.14;100.00
22047;BME280;11187;49.412;20.956;2023-09-30T01:33:19;95595.94;;;10.18;100.00
22047;BME280;11187;49.412;20.956;2023-09-30T01:36:05;95594.25;;;10.12;100.00
22047;BME280;11187;49.412;20.956;2023-09-30T01:38:40;95597.69;;;10.11;100.00
22047;BME280;11187;49.412;20.956;2023-09-30T01:41:26;95592.56;;;10.11;100.00
22047;BME280;11187;49.412;20.956;2023-09-30T01:44:00;95585.78;;;10.07;100.00
22047;BME280;11187;49.412;20.956;2023-09-30T01:46:46;95590.97;;;9.98;100.00
22047;BME280;11187;49.412;20.956;2023-09-30T01:49:27;95586.75;;;9.92;100.00
22047;BME280;11187;49.412;20.956;2023-09-30T01:52:14;95592.75;;;9.90;100.00
22047;BME280;11187;49.412;20.956;2023-09-30T01:55:00;95585.13;;;9.80;100.00
22047;BME280;11187;49.412;20.956;2023-09-30T01:57:54;95586.94;;;9.71;100.00
22047;BME280;11187;49.412;20.956;2023-09-30T02:00:48;95583.53;;;9.67;100.00
22047;BME280;11187;49.412;20.956;2023-09-30T02:03:29;95581.84;;;9.66;100.00
22047;BME280;11187;49.412;20.956;2023-09-30T02:06:15;95583.50;;;9.72;100.00
22047;BME280;11187;49.412;20.956;2023-09-30T02:08:56;95584.34;;;9.75;100.00
22047;BME280;11187;49.412;20.956;2023-09-30T02:11:37;95581.84;;;9.66;100.00
22047;BME280;11187;49.412;20.956;2023-09-30T02:14:18;95585.22;;;9.71;100.00
22047;BME280;11187;49.412;20.956;2023-09-30T02:17:12;95583.50;;;9.75;100.00
22047;BME280;11187;49.412;20.956;2023-09-30T02:20:06;95582.69;;;9.70;100.00
22047;BME280;11187;49.412;20.956;2023-09-30T02:22:46;95575.91;;;9.64;100.00
22047;BME280;11187;49.412;20.956;2023-09-30T02:25:33;95572.53;;;9.59;100.00
22047;BME280;11187;49.412;20.956;2023-09-30T02:28:13;95576.00;;;9.52;100.00
22047;BME280;11187;49.412;20.956;2023-09-30T02:31:07;95570.91;;;9.44;100.00
22047;BME280;11187;49.412;20.956;2023-09-30T02:34:01;95564.16;;;9.37;100.00
22047;BME280;11187;49.412;20.956;2023-09-30T02:36:55;95566.78;;;9.29;100.00
22047;BME280;11187;49.412;20.956;2023-09-30T02:39:29;95568.47;;;9.27;100.00
22047;BME280;11187;49.412;20.956;2023-09-30T02:42:16;95565.06;;;9.30;100.00
22047;BME280;11187;49.412;20.956;2023-09-30T02:44:50;95567.63;;;9.31;100.00
22047;BME280;11187;49.412;20.956;2023-09-30T02:47:37;95561.59;;;9.38;100.00
22047;BME280;11187;49.412;20.956;2023-09-30T02:50:11;95562.41;;;9.44;100.00
22047;BME280;11187;49.412;20.956;2023-09-30T02:52:57;95570.06;;;9.44;100.00
22047;BME280;11187;49.412;20.956;2023-09-30T02:55:51;95564.97;;;9.44;100.00
22047;BME280;11187;49.412;20.956;2023-09-30T02:58:29;95563.31;;;9.38;100.00
22047;BME280;11187;49.412;20.956;2023-09-30T03:01:22;95570.97;;;9.36;100.00
22047;BME280;11187;49.412;20.956;2023-09-30T03:04:16;95579.53;;;9.28;100.00
22047;BME280;11187;49.412;20.956;2023-09-30T03:07:15;95570.22;;;9.20;100.00
22047;BME280;11187;49.412;20.956;2023-09-30T03:09:49;95562.56;;;9.19;100.00
22047;BME280;11187;49.412;20.956;2023-09-30T03:12:35;95559.16;;;9.20;100.00
22047;BME280;11187;49.412;20.956;2023-09-30T03:15:16;95560.88;;;9.15;100.00
22047;BME280;11187;49.412;20.956;2023-09-30T03:18:04;95571.09;;;9.15;100.00
22047;BME280;11187;49.412;20.956;2023-09-30T03:20:39;95564.28;;;9.14;100.00
22047;BME280;11187;49.412;20.956;2023-09-30T03:23:34;95562.63;;;9.11;100.00
22047;BME280;11187;49.412;20.956;2023-09-30T03:26:29;95564.28;;;9.14;100.00
22047;BME280;11187;49.412;20.956;2023-09-30T03:29:02;95572.81;;;9.17;100.00
22047;BME280;11187;49.412;20.956;2023-09-30T03:31:58;95571.06;;;9.21;100.00
22047;BME280;11187;49.412;20.956;2023-09-30T03:34:52;95572.75;;;9.25;100.00
22047;BME280;11187;49.412;20.956;2023-09-30T03:37:47;95582.97;;;9.25;100.00
22047;BME280;11187;49.412;20.956;2023-09-30T03:40:41;95571.03;;;9.27;100.00
22047;BME280;11187;49.412;20.956;2023-09-30T03:43:35;95575.28;;;9.28;100.00
22047;BME280;11187;49.412;20.956;2023-09-30T03:46:29;95577.84;;;9.30;100.00
22047;BME280;11187;49.412;20.956;2023-09-30T03:49:23;95570.16;;;9.30;100.00
22047;BME280;11187;49.412;20.956;2023-09-30T03:52:17;95571.84;;;9.31;100.00
22047;BME280;11187;49.412;20.956;2023-09-30T03:54:51;95576.13;;;9.32;100.00
22047;BME280;11187;49.412;20.956;2023-09-30T03:57:46;95574.44;;;9.28;100.00
22047;BME280;11187;49.412;20.956;2023-09-30T04:00:21;95571.88;;;9.29;100.00
22047;BME280;11187;49.412;20.956;2023-09-30T04:03:14;95572.75;;;9.24;100.00
22047;BME280;11187;49.412;20.956;2023-09-30T04:05:48;95567.63;;;9.27;100.00
22047;BME280;11187;49.412;20.956;2023-09-30T04:08:44;95571.03;;;9.27;100.00
22047;BME280;11187;49.412;20.956;2023-09-30T04:11:18;95573.56;;;9.29;100.00
22047;BME280;11187;49.412;20.956;2023-09-30T04:14:05;95568.44;;;9.30;100.00
22047;BME280;11187;49.412;20.956;2023-09-30T04:16:46;95567.66;;;9.20;100.00
22047;BME280;11187;49.412;20.956;2023-09-30T04:19:33;95565.13;;;9.14;100.00
22047;BME280;11187;49.412;20.956;2023-09-30T04:22:14;95570.28;;;9.08;100.00
22047;BME280;11187;49.412;20.956;2023-09-30T04:24:58;95566.03;;;9.07;100.00
22047;BME280;11187;49.412;20.956;2023-09-30T04:27:41;95567.69;;;9.17;100.00
22047;BME280;11187;49.412;20.956;2023-09-30T04:30:21;95565.97;;;9.21;100.00
22047;BME280;11187;49.412;20.956;2023-09-30T04:33:03;95563.41;;;9.23;100.00
22047;BME280;11187;49.412;20.956;2023-09-30T04:35:44;95565.94;;;9.27;100.00
22047;BME280;11187;49.412;20.956;2023-09-30T04:38:27;95569.28;;;9.32;100.00
22047;BME280;11187;49.412;20.956;2023-09-30T04:41:06;95571.81;;;9.37;100.00
22047;BME280;11187;49.412;20.956;2023-09-30T04:44:01;95565.00;;;9.39;100.00
22047;BME280;11187;49.412;20.956;2023-09-30T04:46:42;95564.97;;;9.42;100.00
22047;BME280;11187;49.412;20.956;2023-09-30T04:49:26;95560.72;;;9.43;100.00
22047;BME280;11187;49.412;20.956;2023-09-30T04:52:05;95564.13;;;9.43;100.00
22047;BME280;11187;49.412;20.956;2023-09-30T04:54:54;95568.38;;;9.46;100.00
22047;BME280;11187;49.412;20.956;2023-09-30T04:57:49;95567.53;;;9.42;100.00
22047;BME280;11187;49.412;20.956;2023-09-30T05:00:23;95561.53;;;9.45;100.00
22047;BME280;11187;49.412;20.956;2023-09-30T05:03:16;95570.03;;;9.47;100.00
22047;BME280;11187;49.412;20.956;2023-09-30T05:06:10;95567.53;;;9.44;100.00
22047;BME280;11187;49.412;20.956;2023-09-30T05:08:45;95562.41;;;9.45;100.00
22047;BME280;11187;49.412;20.956;2023-09-30T05:11:38;95565.81;;;9.46;100.00
22047;BME280;11187;49.412;20.956;2023-09-30T05:14:32;95565.81;;;9.47;100.00
22047;BME280;11187;49.412;20.956;2023-09-30T05:17:26;95561.53;;;9.48;100.00
22047;BME280;11187;49.412;20.956;2023-09-30T05:20:08;95566.63;;;9.51;100.00
22047;BME280;11187;49.412;20.956;2023-09-30T05:22:57;95570.84;;;9.56;100.00
22047;BME280;11187;49.412;20.956;2023-09-30T05:25:32;95570.84;;;9.56;100.00
22047;BME280;11187;49.412;20.956;2023-09-30T05:28:20;95571.66;;;9.60;100.00
22047;BME280;11187;49.412;20.956;2023-09-30T05:30:56;95571.66;;;9.63;100.00
22047;BME280;11187;49.412;20.956;2023-09-30T05:33:49;95571.63;;;9.66;100.00
22047;BME280;11187;49.412;20.956;2023-09-30T05:36:23;95569.03;;;9.69;100.00
22047;BME280;11187;49.412;20.956;2023-09-30T05:39:10;95571.59;;;9.72;100.00
22047;BME280;11187;49.412;20.956;2023-09-30T05:41:44;95577.50;;;9.79;100.00
22047;BME280;11187;49.412;20.956;2023-09-30T05:44:37;95573.19;;;9.81;100.00
22047;BME280;11187;49.412;20.956;2023-09-30T05:47:11;95579.16;;;9.85;100.00
22047;BME280;11187;49.412;20.956;2023-09-30T05:50:06;95584.22;;;9.88;100.00
22047;BME280;11187;49.412;20.956;2023-09-30T05:52:47;95578.22;;;9.92;100.00
22047;BME280;11187;49.412;20.956;2023-09-30T05:55:27;95578.22;;;9.92;100.00
22047;BME280;11187;49.412;20.956;2023-09-30T05:58:09;95577.38;;;9.93;100.00
22047;BME280;11187;49.412;20.956;2023-09-30T06:00:50;95576.50;;;9.95;100.00
22047;BME280;11187;49.412;20.956;2023-09-30T06:03:30;95575.59;;;10.01;100.00
22047;BME280;11187;49.412;20.956;2023-09-30T06:06:13;95574.69;;;10.07;100.00
22047;BME280;11187;49.412;20.956;2023-09-30T06:08:58;95574.66;;;10.10;100.00
22047;BME280;11187;49.412;20.956;2023-09-30T06:11:47;95572.06;;;10.13;100.00
22047;BME280;11187;49.412;20.956;2023-09-30T06:14:21;95576.34;;;10.15;100.00
22047;BME280;11187;49.412;20.956;2023-09-30T06:17:14;95575.41;;;10.21;100.00
22047;BME280;11187;49.412;20.956;2023-09-30T06:20:09;95578.78;;;10.29;100.00
22047;BME280;11187;49.412;20.956;2023-09-30T06:22:49;95577.88;;;10.36;100.00
22047;BME280;11187;49.412;20.956;2023-09-30T06:25:35;95580.34;;;10.44;100.00
22047;BME280;11187;49.412;20.956;2023-09-30T06:28:16;95575.09;;;10.53;100.00
22047;BME280;11187;49.412;20.956;2023-09-30T06:31:06;95575.88;;;10.63;100.00
22047;BME280;11187;49.412;20.956;2023-09-30T06:33:48;95582.59;;;10.72;100.00
22047;BME280;11187;49.412;20.956;2023-09-30T06:36:37;95570.56;;;10.78;100.00
22047;BME280;11187;49.412;20.956;2023-09-30T06:39:11;95577.34;;;10.82;100.00
22047;BME280;11187;49.412;20.956;2023-09-30T06:41:57;95578.16;;;10.86;100.00
22047;BME280;11187;49.412;20.956;2023-09-30T06:44:38;95573.00;;;10.87;100.00
22047;BME280;11187;49.412;20.956;2023-09-30T06:47:25;95582.41;;;10.90;100.00
22047;BME280;11187;49.412;20.956;2023-09-30T06:50:10;95589.19;;;10.93;100.00
22047;BME280;11187;49.412;20.956;2023-09-30T06:52:50;95588.31;;;10.95;100.00
22047;BME280;11187;49.412;20.956;2023-09-30T06:55:40;95589.09;;;10.99;100.00
22047;BME280;11187;49.412;20.956;2023-09-30T06:58:35;95599.31;;;11.02;100.00
22047;BME280;11187;49.412;20.956;2023-09-30T07:01:08;95597.59;;;11.04;100.00
22047;BME280;11187;49.412;20.956;2023-09-30T07:03:54;95593.31;;;11.06;100.00
22047;BME280;11187;49.412;20.956;2023-09-30T07:06:28;95598.38;;;11.09;100.00
22047;BME280;11187;49.412;20.956;2023-09-30T07:09:15;95605.16;;;11.13;100.00
22047;BME280;11187;49.412;20.956;2023-09-30T07:11:49;95602.53;;;11.18;100.00
22047;BME280;11187;49.412;20.956;2023-09-30T07:14:36;95609.34;;;11.20;100.00
22047;BME280;11187;49.412;20.956;2023-09-30T07:17:09;95607.56;;;11.25;100.00
22047;BME280;11187;49.412;20.956;2023-09-30T07:19:56;95608.38;;;11.29;100.00
22047;BME280;11187;49.412;20.956;2023-09-30T07:22:36;95610.00;;;11.35;100.00
22047;BME280;11187;49.412;20.956;2023-09-30T07:25:43;95611.59;;;11.42;100.00
22047;BME280;11187;49.412;20.956;2023-09-30T07:28:17;95609.84;;;11.47;100.00
22047;BME280;11187;49.412;20.956;2023-09-30T07:31:04;95613.19;;;11.54;100.00
22047;BME280;11187;49.412;20.956;2023-09-30T07:33:44;95613.91;;;11.60;100.00
22047;BME280;11187;49.412;20.956;2023-09-30T07:36:31;95614.66;;;11.67;100.00
22047;BME280;11187;49.412;20.956;2023-09-30T07:39:11;95621.44;;;11.74;100.00
22047;BME280;11187;49.412;20.956;2023-09-30T07:41:58;95619.59;;;11.81;100.00
22047;BME280;11187;49.412;20.956;2023-09-30T07:44:38;95620.38;;;11.86;100.00
22047;BME280;11187;49.412;20.956;2023-09-30T07:47:25;95627.16;;;11.93;100.00
22047;BME280;11187;49.412;20.956;2023-09-30T07:50:05;95621.94;;;11.99;100.00
22047;BME280;11187;49.412;20.956;2023-09-30T07:52:53;95624.38;;;12.07;100.00
22047;BME280;11187;49.412;20.956;2023-09-30T07:55:40;95622.53;;;12.14;100.00
22047;BME280;11187;49.412;20.956;2023-09-30T07:58:34;95621.56;;;12.21;100.00
22047;BME280;11187;49.412;20.956;2023-09-30T08:01:08;95625.78;;;12.26;100.00
22047;BME280;11187;49.412;20.956;2023-09-30T08:03:55;95627.38;;;12.32;100.00
22047;BME280;11187;49.412;20.956;2023-09-30T08:06:29;95627.22;;;12.40;100.00
22047;BME280;11187;49.412;20.956;2023-09-30T08:09:16;95632.25;;;12.46;100.00
22047;BME280;11187;49.412;20.956;2023-09-30T08:11:54;95625.31;;;12.51;100.00
22047;BME280;11187;49.412;20.956;2023-09-30T08:14:48;95624.28;;;12.61;100.00
22047;BME280;11187;49.412;20.956;2023-09-30T08:17:21;95616.41;;;12.72;100.00
22047;BME280;11187;49.412;20.956;2023-09-30T08:20:08;95622.19;;;12.83;100.00
22047;BME280;11187;49.412;20.956;2023-09-30T08:22:49;95621.19;;;12.90;100.00
22047;BME280;11187;49.412;20.956;2023-09-30T08:25:36;95620.09;;;13.02;100.00
22047;BME280;11187;49.412;20.956;2023-09-30T08:28:09;95616.44;;;13.12;100.00
22047;BME280;11187;49.412;20.956;2023-09-30T08:31:02;95614.50;;;13.24;100.00
22047;BME280;11187;49.412;20.956;2023-09-30T08:33:35;95616.88;;;13.34;100.00
22047;BME280;11187;49.412;20.956;2023-09-30T08:36:24;95619.22;;;13.47;100.00
22047;BME280;11187;49.412;20.956;2023-09-30T08:38:58;95616.47;;;13.54;100.00
22047;BME280;11187;49.412;20.956;2023-09-30T08:41:45;95622.31;;;13.61;100.00
22047;BME280;11187;49.412;20.956;2023-09-30T08:44:18;95620.50;;;13.66;100.00
22047;BME280;11187;49.412;20.956;2023-09-30T08:47:08;95625.50;;;13.72;100.00
22047;BME280;11187;49.412;20.956;2023-09-30T08:49:50;95620.25;;;13.77;100.00
22047;BME280;11187;49.412;20.956;2023-09-30T08:52:35;95621.00;;;13.82;100.00
22047;BME280;11187;49.412;20.956;2023-09-30T08:55:17;95611.38;;;13.90;100.00
22047;BME280;11187;49.412;20.956;2023-09-30T08:58:04;95619.00;;;13.95;100.00
22047;BME280;11187;49.412;20.956;2023-09-30T09:00:44;95617.16;;;13.98;100.00
22047;BME280;11187;49.412;20.956;2023-09-30T09:03:27;95620.50;;;14.04;100.00
22047;BME280;11187;49.412;20.956;2023-09-30T09:06:07;95620.41;;;14.07;100.00
22047;BME280;11187;49.412;20.956;2023-09-30T09:08:47;95625.38;;;14.14;100.00
22047;BME280;11187;49.412;20.956;2023-09-30T09:11:27;95624.41;;;14.20;100.00
22047;BME280;11187;49.412;20.956;2023-09-30T09:14:14;95627.00;;;14.18;100.00
22047;BME280;11187;49.412;20.956;2023-09-30T09:16:52;95625.19;;;14.22;100.00
22047;BME280;11187;49.412;20.956;2023-09-30T09:19:40;95619.94;;;14.27;100.00
22047;BME280;11187;49.412;20.956;2023-09-30T09:22:20;95627.50;;;14.33;100.00
22047;BME280;11187;49.412;20.956;2023-09-30T09:25:14;95630.72;;;14.41;100.00
22047;BME280;11187;49.412;20.956;2023-09-30T09:28:10;95631.53;;;14.43;100.00
22047;BME280;11187;49.412;20.956;2023-09-30T09:31:23;95626.31;;;14.46;100.00
22047;BME280;11187;49.412;20.956;2023-09-30T09:33:57;95633.91;;;14.51;100.00
22047;BME280;11187;49.412;20.956;2023-09-30T09:36:45;95622.66;;;14.56;100.00
22047;BME280;11187;49.412;20.956;2023-09-30T09:39:29;95623.34;;;14.63;100.00
22047;BME280;11187;49.412;20.956;2023-09-30T09:42:32;95623.84;;;14.76;100.00
22047;BME280;11187;49.412;20.956;2023-09-30T09:45:06;95617.56;;;14.86;100.00
22047;BME280;11187;49.412;20.956;2023-09-30T09:48:01;95624.41;;;14.87;100.00
22047;BME280;11187;49.412;20.956;2023-09-30T09:50:55;95630.34;;;14.91;100.00
22047;BME280;11187;49.412;20.956;2023-09-30T09:53:34;95629.38;;;14.95;100.00
22047;BME280;11187;49.412;20.956;2023-09-30T09:56:22;95623.28;;;14.97;100.00
22047;BME280;11187;49.412;20.956;2023-09-30T09:58:55;95619.75;;;15.01;100.00
22047;BME280;11187;49.412;20.956;2023-09-30T10:01:51;95628.31;;;15.02;100.00
22047;BME280;11187;49.412;20.956;2023-09-30T10:04:45;95625.75;;;15.00;100.00
22047;BME280;11187;49.412;20.956;2023-09-30T10:07:46;95617.06;;;15.04;100.00
22047;BME280;11187;49.412;20.956;2023-09-30T10:10:45;95623.81;;;15.10;100.00
22047;BME280;11187;49.412;20.956;2023-09-30T10:13:54;95620.31;;;15.11;100.00
22047;BME280;11187;49.412;20.956;2023-09-30T10:19:22;95615.03;;;15.16;100.00
22047;BME280;11187;49.412;20.956;2023-09-30T10:25:35;95609.78;;;15.19;100.00
22047;BME280;11187;49.412;20.956;2023-09-30T10:28:46;95614.88;;;15.22;100.00
22047;BME280;11187;49.412;20.956;2023-09-30T10:31:49;95617.38;;;15.23;100.00
22047;BME280;11187;49.412;20.956;2023-09-30T10:34:23;95616.50;;;15.24;100.00
22047;BME280;11187;49.412;20.956;2023-09-30T10:37:22;95614.59;;;15.31;100.00
22047;BME280;11187;49.412;20.956;2023-09-30T10:39:58;95611.91;;;15.34;100.00
22047;BME280;11187;49.412;20.956;2023-09-30T10:42:54;95608.47;;;15.35;100.00
22047;BME280;11187;49.412;20.956;2023-09-30T10:45:45;95606.66;;;15.37;100.00
22047;BME280;11187;49.412;20.956;2023-09-30T10:48:40;95603.16;;;15.40;100.00
22047;BME280;11187;49.412;20.956;2023-09-30T10:51:38;95602.16;;;15.44;100.00
22047;BME280;11187;49.412;20.956;2023-09-30T10:54:12;95604.69;;;15.47;100.00
22047;BME280;11187;49.412;20.956;2023-09-30T10:57:06;95599.50;;;15.47;100.00
22047;BME280;11187;49.412;20.956;2023-09-30T10:59:39;95600.34;;;15.48;100.00
22047;BME280;11187;49.412;20.956;2023-09-30T11:02:26;95599.41;;;15.50;100.00
22047;BME280;11187;49.412;20.956;2023-09-30T11:05:09;95599.44;;;15.49;100.00
22047;BME280;11187;49.412;20.956;2023-09-30T11:07:57;95598.69;;;15.47;100.00
22047;BME280;11187;49.412;20.956;2023-09-30T11:10:33;95594.34;;;15.47;100.00
22047;BME280;11187;49.412;20.956;2023-09-30T11:13:21;95597.81;;;15.46;100.00
22047;BME280;11187;49.412;20.956;2023-09-30T11:16:01;95596.88;;;15.49;100.00
22047;BME280;11187;49.412;20.956;2023-09-30T11:18:53;95597.81;;;15.46;100.00
22047;BME280;11187;49.412;20.956;2023-09-30T11:21:27;95595.19;;;15.48;100.00
22047;BME280;11187;49.412;20.956;2023-09-30T11:24:22;95601.25;;;15.47;100.00
22047;BME280;11187;49.412;20.956;2023-09-30T11:27:03;95595.19;;;15.48;100.00
22047;BME280;11187;49.412;20.956;2023-09-30T11:29:57;95600.38;;;15.46;100.00
22047;BME280;11187;49.412;20.956;2023-09-30T11:32:31;95596.13;;;15.45;100.00
22047;BME280;11187;49.412;20.956;2023-09-30T11:35:26;95596.16;;;15.43;100.00
22047;BME280;11187;49.412;20.956;2023-09-30T11:37:59;95597.00;;;15.44;100.00
22047;BME280;11187;49.412;20.956;2023-09-30T11:43:34;95591.81;;;15.45;100.00
22047;BME280;11187;49.412;20.956;2023-09-30T11:46:23;95594.28;;;15.49;100.00
22047;BME280;11187;49.412;20.956;2023-09-30T11:49:02;95592.56;;;15.49;100.00
22047;BME280;11187;49.412;20.956;2023-09-30T11:51:58;95591.66;;;15.50;100.00
22047;BME280;11187;49.412;20.956;2023-09-30T11:54:54;95592.50;;;15.51;100.00
22047;BME280;11187;49.412;20.956;2023-09-30T11:57:48;95591.66;;;15.50;100.00
22047;BME280;11187;49.412;20.956;2023-09-30T12:00:23;95589.94;;;15.51;100.00
22047;BME280;11187;49.412;20.956;2023-09-30T12:03:17;95587.34;;;15.51;100.00
22047;BME280;11187;49.412;20.956;2023-09-30T12:05:50;95583.88;;;15.52;100.00
22047;BME280;11187;49.412;20.956;2023-09-30T12:08:44;95579.59;;;15.51;100.00
22047;BME280;11187;49.412;20.956;2023-09-30T12:11:38;95593.31;;;15.53;100.00
22047;BME280;11187;49.412;20.956;2023-09-30T12:14:12;95587.22;;;15.55;100.00
22047;BME280;11187;49.412;20.956;2023-09-30T12:16:59;95588.88;;;15.58;100.00
22047;BME280;11187;49.412;20.956;2023-09-30T12:19:32;95591.38;;;15.59;100.00
22047;BME280;11187;49.412;20.956;2023-09-30T12:22:19;95597.38;;;15.60;100.00
22047;BME280;11187;49.412;20.956;2023-09-30T12:24:53;95592.19;;;15.61;100.00
22047;BME280;11187;49.412;20.956;2023-09-30T12:27:48;95598.19;;;15.62;100.00
22047;BME280;11187;49.412;20.956;2023-09-30T12:30:28;95593.03;;;15.62;100.00
22047;BME280;11187;49.412;20.956;2023-09-30T12:33:08;95588.66;;;15.64;100.00
22047;BME280;11187;49.412;20.956;2023-09-30T12:35:48;95588.66;;;15.64;100.00
22047;BME280;11187;49.412;20.956;2023-09-30T12:38:35;95594.78;;;15.61;100.00
22047;BME280;11187;49.412;20.956;2023-09-30T12:41:15;95603.31;;;15.63;100.00
22047;BME280;11187;49.412;20.956;2023-09-30T12:43:55;95600.69;;;15.65;100.00
22047;BME280;11187;49.412;20.956;2023-09-30T12:46:37;95593.84;;;15.64;100.00
22047;BME280;11187;49.412;20.956;2023-09-30T12:49:25;95596.47;;;15.62;100.00
22047;BME280;11187;49.412;20.956;2023-09-30T12:51:58;95594.81;;;15.60;100.00
22047;BME280;11187;49.412;20.956;2023-09-30T12:54:45;95593.13;;;15.59;100.00
22047;BME280;11187;49.412;20.956;2023-09-30T12:57:39;95595.72;;;15.59;100.00
22047;BME280;11187;49.412;20.956;2023-09-30T13:00:13;95591.34;;;15.61;100.00
22047;BME280;11187;49.412;20.956;2023-09-30T13:03:08;95600.78;;;15.62;100.00
22047;BME280;11187;49.412;20.956;2023-09-30T13:06:02;95591.38;;;15.59;100.00
22047;BME280;11187;49.412;20.956;2023-09-30T13:08:56;95597.22;;;15.66;100.00
22047;BME280;11187;49.412;20.956;2023-09-30T13:11:29;95593.69;;;15.69;100.00
22047;BME280;11187;49.412;20.956;2023-09-30T13:14:17;95594.53;;;15.69;100.00
22047;BME280;11187;49.412;20.956;2023-09-30T13:16:50;95588.53;;;15.69;100.00
22047;BME280;11187;49.412;20.956;2023-09-30T13:19:37;95581.69;;;15.68;100.00
22047;BME280;11187;49.412;20.956;2023-09-30T13:22:10;95588.53;;;15.69;100.00
22047;BME280;11187;49.412;20.956;2023-09-30T13:25:00;95589.44;;;15.68;100.00
22047;BME280;11187;49.412;20.956;2023-09-30T13:27:35;95594.59;;;15.68;100.00
22047;BME280;11187;49.412;20.956;2023-09-30T13:30:30;95598.06;;;15.66;100.00
22047;BME280;11187;49.412;20.956;2023-09-30T13:33:03;95589.47;;;15.66;100.00
22047;BME280;11187;49.412;20.956;2023-09-30T13:35:50;95587.78;;;15.65;100.00
22047;BME280;11187;49.412;20.956;2023-09-30T13:38:23;95589.47;;;15.66;100.00
22047;BME280;11187;49.412;20.956;2023-09-30T13:41:10;95586.94;;;15.64;100.00
22047;BME280;11187;49.412;20.956;2023-09-30T13:43:43;95594.66;;;15.64;100.00
22047;BME280;11187;49.412;20.956;2023-09-30T13:46:30;95593.94;;;15.61;100.00
22047;BME280;11187;49.412;20.956;2023-09-30T13:49:03;95592.22;;;15.60;100.00
22047;BME280;11187;49.412;20.956;2023-09-30T13:51:50;95585.22;;;15.65;100.00
22047;BME280;11187;49.412;20.956;2023-09-30T13:54:23;95593.78;;;15.94;100.00
22047;BME280;11187;49.412;20.956;2023-09-30T13:57:17;95590.13;;;16.01;100.00
22047;BME280;11187;49.412;20.956;2023-09-30T13:59:50;95591.19;;;15.95;100.00
22047;BME280;11187;49.412;20.956;2023-09-30T14:02:44;95593.09;;;15.89;100.00
22047;BME280;11187;49.412;20.956;2023-09-30T14:05:17;95595.84;;;15.84;100.00
22047;BME280;11187;49.412;20.956;2023-09-30T14:08:04;95587.44;;;15.77;100.00
22047;BME280;11187;49.412;20.956;2023-09-30T14:10:40;95586.69;;;15.74;100.00
22047;BME280;11187;49.412;20.956;2023-09-30T14:13:34;95589.44;;;15.68;100.00
22047;BME280;11187;49.412;20.956;2023-09-30T14:16:08;95595.56;;;15.63;100.00
22047;BME280;11187;49.412;20.956;2023-09-30T14:18:55;95600.84;;;15.60;100.00
22047;BME280;11187;49.412;20.956;2023-09-30T14:21:28;95597.47;;;15.58;100.00